createdAt,value
2018-02-10T00:01:30.360Z,64.22
2018-02-10T00:03:59.225Z,56.90
2018-02-10T00:06:28.049Z,64.93
2018-02-10T00:08:56.878Z,57.88
2018-02-10T00:11:25.797Z,58.33
2018-02-10T00:13:54.683Z,59.17
2018-02-10T00:16:23.525Z,54.17
2018-02-10T00:18:52.336Z,65.65
2018-02-10T00:21:21.207Z,57.38
2018-02-10T00:23:50.007Z,62.92
2018-02-10T00:26:18.857Z,55.00
2018-02-10T00:28:47.674Z,61.40
2018-02-10T00:31:16.532Z,63.55
2018-02-10T00:33:45.358Z,71.72
2018-02-10T00:36:14.207Z,67.25
2018-02-10T00:38:43.044Z,56.35
2018-02-10T00:41:11.847Z,61.92
2018-02-10T00:43:40.753Z,54.70
2018-02-10T00:46:09.590Z,99.90
2018-02-10T00:48:38.429Z,62.58
2018-02-10T00:51:07.281Z,63.83
2018-02-10T00:53:36.101Z,75.05
2018-02-10T00:56:04.940Z,63.60
2018-02-10T00:58:33.761Z,58.45
2018-02-10T01:01:02.636Z,62.60
2018-02-10T01:03:31.466Z,66.72
2018-02-10T01:06:00.396Z,85.72
2018-02-10T01:08:29.233Z,63.13
2018-02-10T01:10:58.258Z,69.82
2018-02-10T01:13:27.098Z,171.05
2018-02-10T01:15:55.913Z,135.45
2018-02-10T01:18:24.766Z,64.30
2018-02-10T01:20:53.645Z,128.62
2018-02-10T01:23:22.509Z,91.87
2018-02-10T01:25:51.320Z,75.95
2018-02-10T01:28:20.148Z,72.12
2018-02-10T01:30:48.986Z,95.97
2018-02-10T01:33:17.810Z,98.87
2018-02-10T01:35:46.657Z,88.03
2018-02-10T01:38:15.486Z,63.17
2018-02-10T01:40:44.308Z,59.17
2018-02-10T01:43:13.144Z,62.00
2018-02-10T01:45:41.962Z,67.50
2018-02-10T01:48:10.842Z,68.57
2018-02-10T01:50:39.641Z,68.68
2018-02-10T01:53:08.492Z,96.07
2018-02-10T01:55:37.336Z,63.17
2018-02-10T01:58:07.310Z,68.53
2018-02-10T02:00:36.132Z,70.40
2018-02-10T02:03:04.992Z,70.20
2018-02-10T02:05:33.824Z,71.47
2018-02-10T02:08:02.724Z,69.20
2018-02-10T02:10:31.551Z,70.47
2018-02-10T02:13:00.358Z,58.35
2018-02-10T02:15:29.197Z,60.05
2018-02-10T02:17:58.120Z,72.68
2018-02-10T02:20:26.933Z,56.97
2018-02-10T02:22:55.873Z,64.80
2018-02-10T02:25:24.715Z,69.43
2018-02-10T02:27:53.541Z,61.78
2018-02-10T02:30:22.385Z,64.07
2018-02-10T02:32:51.204Z,54.75
2018-02-10T02:35:20.053Z,69.68
2018-02-10T02:37:48.897Z,92.75
2018-02-10T02:40:17.731Z,89.47
2018-02-10T02:42:46.577Z,97.65
2018-02-10T02:45:15.396Z,71.72
2018-02-10T02:47:44.232Z,73.70
2018-02-10T02:50:13.045Z,65.30
2018-02-10T02:52:41.896Z,65.40
2018-02-10T02:55:10.712Z,94.55
2018-02-10T02:57:39.613Z,68.03
2018-02-10T03:00:08.448Z,73.68
2018-02-10T03:02:37.280Z,69.43
2018-02-10T03:05:06.128Z,111.28
2018-02-10T03:07:34.953Z,86.82
2018-02-10T03:10:03.793Z,67.20
2018-02-10T03:12:32.607Z,56.65
2018-02-10T03:15:01.445Z,84.53
2018-02-10T03:17:30.244Z,56.25
2018-02-10T03:19:59.232Z,62.90
2018-02-10T03:22:28.043Z,58.30
2018-02-10T03:24:56.878Z,55.60
2018-02-10T03:27:25.708Z,94.05
2018-02-10T03:29:54.631Z,59.30
2018-02-10T03:32:23.461Z,55.75
2018-02-10T03:34:52.357Z,56.83
2018-02-10T03:37:21.195Z,56.90
2018-02-10T03:39:50.020Z,54.75
2018-02-10T03:42:19.256Z,42.20
2018-02-10T03:44:48.105Z,48.78
2018-02-10T03:47:16.928Z,56.30
2018-02-10T03:49:45.765Z,62.22
2018-02-10T03:52:14.589Z,54.40
2018-02-10T03:54:43.500Z,55.60
2018-02-10T03:57:12.324Z,48.05
2018-02-10T03:59:41.161Z,55.00
2018-02-10T04:02:10.069Z,47.85
2018-02-10T04:04:38.912Z,53.63
2018-02-10T04:07:07.724Z,52.00
2018-02-10T04:09:36.684Z,46.60
2018-02-10T04:12:05.505Z,50.25
2018-02-10T04:14:34.340Z,44.60
2018-02-10T04:17:03.169Z,50.40
2018-02-10T04:19:31.991Z,83.87
2018-02-10T04:22:00.850Z,47.25
2018-02-10T04:24:29.713Z,52.60
2018-02-10T04:26:58.543Z,58.08
2018-02-10T04:29:27.341Z,41.35
2018-02-10T04:31:56.160Z,46.22
2018-02-10T04:34:24.993Z,40.35
2018-02-10T04:36:53.805Z,43.17
2018-02-10T04:39:22.637Z,43.35
2018-02-10T04:41:51.447Z,43.65
2018-02-10T04:44:20.278Z,45.12
2018-02-10T04:46:49.184Z,45.65
2018-02-10T04:49:18.008Z,48.87
2018-02-10T04:51:46.818Z,47.22
2018-02-10T04:54:15.622Z,46.22
2018-02-10T04:56:44.463Z,43.03
2018-02-10T04:59:13.340Z,46.08
2018-02-10T05:01:42.147Z,48.65
2018-02-10T05:04:10.975Z,42.08
2018-02-10T05:06:39.815Z,41.08
2018-02-10T05:09:08.634Z,44.00
2018-02-10T05:11:37.490Z,44.60
2018-02-10T05:14:06.317Z,47.95
2018-02-10T05:16:35.132Z,57.00
2018-02-10T05:19:04.053Z,85.95
2018-02-10T05:21:32.864Z,46.00
2018-02-10T05:24:01.701Z,43.30
2018-02-10T05:26:30.508Z,42.33
2018-02-10T05:28:59.367Z,49.53
2018-02-10T05:31:28.175Z,52.10
2018-02-10T05:33:57.023Z,52.83
2018-02-10T05:36:25.853Z,50.83
2018-02-10T05:38:54.653Z,48.80
2018-02-10T05:41:23.493Z,47.90
2018-02-10T05:43:52.341Z,48.90
2018-02-10T05:46:21.176Z,48.35
2018-02-10T05:48:50.014Z,79.53
2018-02-10T05:51:18.853Z,50.80
2018-02-10T05:53:47.704Z,59.85
2018-02-10T05:56:16.537Z,62.78
2018-02-10T05:58:45.375Z,49.42
2018-02-10T06:01:14.187Z,50.35
2018-02-10T06:03:43.042Z,52.42
2018-02-10T06:06:11.972Z,50.90
2018-02-10T06:08:40.805Z,52.70
2018-02-10T06:11:09.627Z,48.67
2018-02-10T06:13:38.478Z,43.92
2018-02-10T06:16:07.309Z,34.35
2018-02-10T06:18:36.139Z,30.60
2018-02-10T06:21:04.978Z,35.17
2018-02-10T06:23:33.793Z,43.83
2018-02-10T06:26:02.694Z,56.22
2018-02-10T06:28:31.521Z,51.63
2018-02-10T06:31:00.335Z,50.42
2018-02-10T06:33:29.212Z,46.72
2018-02-10T06:35:58.072Z,38.90
2018-02-10T06:38:26.884Z,51.92
2018-02-10T06:40:55.712Z,63.20
2018-02-10T06:43:24.560Z,38.13
2018-02-10T06:45:53.376Z,33.63
2018-02-10T06:48:22.218Z,51.90
2018-02-10T06:50:51.038Z,33.85
2018-02-10T06:53:19.885Z,36.88
2018-02-10T06:55:48.778Z,46.80
2018-02-10T06:58:17.625Z,42.25
2018-02-10T07:00:46.441Z,33.70
2018-02-10T07:03:15.260Z,43.05
2018-02-10T07:05:44.113Z,34.75
2018-02-10T07:08:12.928Z,52.78
2018-02-10T07:10:41.781Z,45.53
2018-02-10T07:13:10.588Z,43.22
2018-02-10T07:15:39.431Z,44.90
2018-02-10T07:18:08.249Z,52.75
2018-02-10T07:20:37.085Z,50.25
2018-02-10T07:23:05.934Z,46.15
2018-02-10T07:25:34.842Z,48.00
2018-02-10T07:28:03.687Z,50.53
2018-02-10T07:30:32.513Z,36.85
2018-02-10T07:33:01.356Z,30.23
2018-02-10T07:35:30.198Z,36.38
2018-02-10T07:37:59.055Z,42.62
2018-02-10T07:40:27.872Z,48.65
2018-02-10T07:42:56.730Z,53.80
2018-02-10T07:45:25.561Z,47.80
2018-02-10T07:47:54.377Z,54.38
2018-02-10T07:50:23.211Z,48.78
2018-02-10T07:52:52.065Z,47.45
2018-02-10T07:55:20.875Z,50.10
2018-02-10T07:57:49.714Z,48.97
2018-02-10T08:00:18.577Z,46.00
2018-02-10T08:02:47.401Z,52.00
2018-02-10T08:05:16.260Z,53.35
2018-02-10T08:07:45.080Z,47.75
2018-02-10T08:10:13.892Z,49.03
2018-02-10T08:12:42.748Z,48.15
2018-02-10T08:15:11.610Z,47.78
2018-02-10T08:17:40.450Z,44.20
2018-02-10T08:20:09.263Z,46.03
2018-02-10T08:22:38.114Z,44.75
2018-02-10T08:25:06.952Z,46.63
2018-02-10T08:27:35.806Z,55.35
2018-02-10T08:30:04.612Z,41.78
2018-02-10T08:32:33.452Z,56.80
2018-02-10T08:35:02.479Z,42.40
2018-02-10T08:37:31.341Z,34.22
2018-02-10T08:40:00.235Z,44.75
2018-02-10T08:42:29.062Z,51.92
2018-02-10T08:44:57.905Z,41.88
2018-02-10T08:47:26.803Z,52.30
2018-02-10T08:49:55.641Z,47.38
2018-02-10T08:52:24.451Z,47.40
2018-02-10T08:54:53.292Z,47.60
2018-02-10T08:57:22.108Z,50.10
2018-02-10T08:59:50.965Z,41.90
2018-02-10T09:02:19.784Z,44.65
2018-02-10T09:04:48.713Z,40.97
2018-02-10T09:07:17.562Z,38.03
2018-02-10T09:09:46.382Z,34.63
2018-02-10T09:12:16.117Z,38.30
2018-02-10T09:14:44.929Z,42.05
2018-02-10T09:17:13.770Z,29.98
2018-02-10T09:19:42.598Z,38.88
2018-02-10T09:22:11.457Z,42.28
2018-02-10T09:24:40.330Z,40.78
2018-02-10T09:27:09.151Z,37.13
2018-02-10T09:29:38.006Z,41.88
2018-02-10T09:32:06.854Z,41.42
2018-02-10T09:34:35.682Z,39.83
2018-02-10T09:37:04.511Z,36.10
2018-02-10T09:39:33.327Z,38.47
2018-02-10T09:42:02.179Z,40.75
2018-02-10T09:44:30.997Z,40.03
2018-02-10T09:46:59.846Z,39.15
2018-02-10T09:49:28.680Z,40.40
2018-02-10T09:51:57.618Z,35.38
2018-02-10T09:54:26.428Z,37.38
2018-02-10T09:56:55.335Z,32.53
2018-02-10T09:59:24.154Z,32.53
2018-02-10T10:01:53.025Z,29.42
2018-02-10T10:04:21.884Z,32.17
2018-02-10T10:06:50.725Z,33.08
2018-02-10T10:09:19.556Z,29.40
2018-02-10T10:11:48.480Z,33.67
2018-02-10T10:14:17.362Z,30.05
2018-02-10T10:16:46.202Z,32.88
2018-02-10T10:19:15.052Z,32.80
2018-02-10T10:21:43.886Z,36.42
2018-02-10T10:24:12.710Z,38.42
2018-02-10T10:26:41.598Z,38.05
2018-02-10T10:29:10.412Z,32.33
2018-02-10T10:31:39.249Z,32.53
2018-02-10T10:34:08.068Z,33.88
2018-02-10T10:36:36.944Z,30.05
2018-02-10T10:39:05.788Z,33.42
2018-02-10T10:41:34.617Z,37.20
2018-02-10T10:44:03.479Z,37.42
2018-02-10T10:46:32.679Z,39.67
2018-02-10T10:49:01.514Z,35.20
2018-02-10T10:51:30.370Z,43.80
2018-02-10T10:53:59.197Z,35.05
2018-02-10T10:56:28.067Z,33.17
2018-02-10T10:58:56.887Z,30.77
2018-02-10T11:01:25.737Z,35.63
2018-02-10T11:03:54.562Z,27.25
2018-02-10T11:06:23.397Z,28.00
2018-02-10T11:08:52.240Z,30.33
2018-02-10T11:11:21.080Z,30.95
2018-02-10T11:13:49.930Z,24.10
2018-02-10T11:16:18.799Z,25.95
2018-02-10T11:18:47.645Z,30.67
2018-02-10T11:21:16.462Z,29.73
2018-02-10T11:23:45.296Z,34.10
2018-02-10T11:26:14.154Z,28.67
2018-02-10T11:28:42.979Z,36.78
2018-02-10T11:31:11.818Z,34.33
2018-02-10T11:33:40.655Z,34.15
2018-02-10T11:36:09.514Z,39.35
2018-02-10T11:38:38.347Z,37.70
2018-02-10T11:41:07.208Z,40.10
2018-02-10T11:43:36.094Z,38.05
2018-02-10T11:46:04.933Z,32.58
2018-02-10T11:48:33.775Z,38.63
2018-02-10T11:51:02.599Z,36.58
2018-02-10T11:53:31.445Z,43.63
2018-02-10T11:56:00.329Z,41.25
2018-02-10T11:58:29.166Z,34.50
2018-02-10T12:00:58.050Z,38.00
2018-02-10T12:03:26.877Z,43.65
2018-02-10T12:05:55.750Z,33.50
2018-02-10T12:08:24.573Z,37.38
2018-02-10T12:10:53.484Z,39.83
2018-02-10T12:13:22.306Z,34.10
2018-02-10T12:15:51.184Z,32.53
2018-02-10T12:18:20.016Z,44.25
2018-02-10T12:20:48.837Z,36.78
2018-02-10T12:23:17.694Z,67.68
2018-02-10T12:25:46.530Z,40.45
2018-02-10T12:28:15.447Z,41.25
2018-02-10T12:30:44.266Z,38.63
2018-02-10T12:33:13.166Z,42.97
2018-02-10T12:35:42.097Z,37.97
2018-02-10T12:38:10.930Z,41.42
2018-02-10T12:40:39.791Z,35.97
2018-02-10T12:43:08.810Z,35.10
2018-02-10T12:45:37.697Z,38.85
2018-02-10T12:48:24.308Z,35.67
2018-02-10T12:50:53.185Z,34.83
2018-02-10T12:53:22.045Z,48.22
2018-02-10T12:55:50.908Z,40.75
2018-02-10T12:58:19.786Z,42.97
2018-02-10T13:00:48.634Z,38.85
2018-02-10T13:03:17.467Z,39.20
2018-02-10T13:05:46.388Z,45.78
2018-02-10T13:08:15.240Z,42.67
2018-02-10T13:10:44.105Z,39.72
2018-02-10T13:13:12.958Z,54.53
2018-02-10T13:15:41.770Z,42.08
2018-02-10T13:18:10.637Z,29.17
2018-02-10T13:20:39.522Z,33.72
2018-02-10T13:23:08.372Z,32.47
2018-02-10T13:25:37.242Z,30.45
2018-02-10T13:28:06.124Z,34.20
2018-02-10T13:30:34.949Z,33.85
2018-02-10T13:33:03.804Z,45.65
2018-02-10T13:35:32.790Z,31.42
2018-02-10T13:38:01.748Z,32.88
2018-02-10T13:40:30.558Z,30.98
2018-02-10T13:42:59.426Z,31.85
2018-02-10T13:45:28.223Z,33.47
2018-02-10T13:47:57.074Z,35.60
2018-02-10T13:50:25.973Z,25.40
2018-02-10T13:52:54.793Z,27.65
2018-02-10T13:55:23.632Z,29.17
2018-02-10T13:57:52.480Z,31.17
2018-02-10T14:00:21.316Z,31.05
2018-02-10T14:02:50.160Z,31.12
2018-02-10T14:05:19.030Z,27.48
2018-02-10T14:07:47.890Z,28.05
2018-02-10T14:10:16.735Z,27.15
2018-02-10T14:12:45.552Z,27.92
2018-02-10T14:15:14.387Z,28.23
2018-02-10T14:17:43.231Z,30.33
2018-02-10T14:20:12.054Z,29.73
2018-02-10T14:22:40.924Z,30.90
2018-02-10T14:25:09.768Z,25.75
2018-02-10T14:27:38.721Z,22.98
2018-02-10T14:30:07.560Z,23.08
2018-02-10T14:32:36.374Z,26.37
2018-02-10T14:35:05.222Z,28.02
2018-02-10T14:37:34.040Z,30.27
2018-02-10T14:40:02.885Z,28.87
2018-02-10T14:42:31.700Z,27.08
2018-02-10T14:45:00.539Z,26.80
2018-02-10T14:47:29.444Z,24.52
2018-02-10T14:49:58.266Z,29.10
2018-02-10T14:52:27.089Z,27.55
2018-02-10T14:54:55.947Z,22.73
2018-02-10T14:57:24.789Z,21.90
2018-02-10T15:02:29.037Z,16.40
2018-02-10T15:04:57.965Z,16.27
2018-02-10T15:07:26.831Z,17.95
2018-02-10T15:09:55.698Z,15.73
2018-02-10T15:12:24.520Z,14.52
2018-02-10T15:14:53.354Z,12.90
2018-02-10T15:17:22.231Z,15.68
2018-02-10T15:19:51.856Z,13.90
2018-02-10T15:22:20.836Z,16.55
2018-02-10T15:24:49.831Z,12.80
2018-02-10T15:27:18.661Z,14.75
2018-02-10T15:29:53.286Z,14.63
2018-02-10T15:32:27.948Z,13.27
2018-02-10T15:34:56.821Z,13.43
2018-02-10T15:37:25.656Z,10.88
2018-02-10T15:39:54.534Z,12.35
2018-02-10T15:44:58.861Z,12.57
2018-02-10T15:47:27.749Z,12.82
2018-02-10T15:49:56.601Z,13.43
2018-02-10T15:52:25.488Z,12.60
2018-02-10T15:54:54.321Z,14.27
2018-02-10T15:57:23.196Z,12.82
2018-02-10T15:59:52.054Z,15.80
2018-02-10T16:02:20.881Z,14.82
2018-02-10T16:04:49.728Z,13.88
2018-02-10T16:07:18.617Z,14.35
2018-02-10T16:09:47.503Z,11.98
2018-02-10T16:12:16.311Z,13.95
2018-02-10T16:14:45.207Z,14.50
2018-02-10T16:17:14.036Z,13.20
2018-02-10T16:19:42.973Z,13.25
2018-02-10T16:22:11.869Z,10.90
2018-02-10T16:24:40.685Z,12.10
2018-02-10T16:27:09.562Z,15.68
2018-02-10T16:29:38.377Z,14.77
2018-02-10T16:32:07.245Z,14.40
2018-02-10T16:34:36.056Z,13.38
2018-02-10T16:37:04.928Z,13.05
2018-02-10T16:39:33.830Z,12.85
2018-02-10T16:42:02.660Z,11.85
2018-02-10T16:44:31.525Z,11.18
2018-02-10T16:47:00.380Z,15.02
2018-02-10T16:49:29.249Z,11.45
2018-02-10T16:51:58.117Z,14.20
2018-02-10T16:54:27.007Z,13.60
2018-02-10T16:56:55.860Z,31.30
2018-02-10T16:59:24.696Z,20.08
2018-02-10T17:01:53.546Z,38.28
2018-02-10T17:04:22.397Z,20.12
2018-02-10T17:06:51.243Z,14.73
2018-02-10T17:09:20.084Z,21.40
2018-02-10T17:11:48.926Z,18.02
2018-02-10T17:14:17.781Z,13.90
2018-02-10T17:16:46.600Z,44.47
2018-02-10T17:19:15.487Z,14.95
2018-02-10T17:21:44.377Z,43.65
2018-02-10T17:24:13.260Z,26.62
2018-02-10T17:26:42.110Z,20.23
2018-02-10T17:29:11.008Z,24.83
2018-02-10T17:31:39.860Z,26.80
2018-02-10T17:34:08.746Z,23.20
2018-02-10T17:36:38.390Z,17.52
2018-02-10T17:39:07.252Z,20.30
2018-02-10T17:41:36.090Z,19.55
2018-02-10T17:44:04.913Z,20.67
2018-02-10T17:46:33.771Z,22.30
2018-02-10T17:49:02.646Z,34.88
2018-02-10T17:51:31.481Z,20.05
2018-02-10T17:54:00.322Z,29.35
2018-02-10T17:56:29.154Z,14.73
2018-02-10T17:58:57.992Z,17.55
2018-02-10T18:01:28.676Z,14.68
2018-02-10T18:03:57.582Z,13.62
2018-02-10T18:06:26.441Z,18.17
2018-02-10T18:08:55.269Z,61.65
2018-02-10T18:11:24.074Z,19.15
2018-02-10T18:13:52.917Z,18.90
2018-02-10T18:16:21.750Z,15.07
2018-02-10T18:18:50.589Z,21.33
2018-02-10T18:21:19.471Z,16.02
2018-02-10T18:23:48.338Z,17.17
2018-02-10T18:26:17.181Z,19.17
2018-02-10T18:28:46.041Z,15.85
2018-02-10T18:31:14.907Z,23.10
2018-02-10T18:33:43.745Z,13.80
2018-02-10T18:36:12.600Z,16.98
2018-02-10T18:38:41.422Z,13.18
2018-02-10T18:41:10.285Z,13.05
2018-02-10T18:43:39.090Z,12.05
2018-02-10T18:46:07.900Z,13.82
2018-02-10T18:48:36.785Z,10.52
2018-02-10T18:51:05.665Z,16.00
2018-02-10T18:53:34.504Z,10.85
2018-02-10T18:56:03.343Z,16.67
2018-02-10T18:58:32.271Z,11.20
2018-02-10T19:01:01.093Z,15.88
2018-02-10T19:03:29.933Z,8.43
2018-02-10T19:05:58.817Z,10.63
2018-02-10T19:08:27.654Z,29.60
2018-02-10T19:10:56.504Z,22.00
2018-02-10T19:13:25.377Z,52.80
2018-02-10T19:15:54.242Z,143.57
2018-02-10T19:18:23.097Z,32.70
2018-02-10T19:20:51.964Z,67.10
2018-02-10T19:23:20.812Z,36.03
2018-02-10T19:25:49.684Z,78.97
2018-02-10T19:28:18.567Z,20.35
2018-02-10T19:30:47.497Z,108.68
2018-02-10T19:33:16.357Z,19.12
2018-02-10T19:35:45.217Z,46.92
2018-02-10T19:38:14.079Z,70.43
2018-02-10T19:40:42.912Z,42.50
2018-02-10T19:43:11.746Z,15.70
2018-02-10T19:45:40.574Z,23.12
2018-02-10T19:48:09.432Z,32.85
2018-02-10T19:50:38.257Z,23.15
2018-02-10T19:53:07.147Z,11.68
2018-02-10T19:55:36.007Z,16.00
2018-02-10T19:58:04.823Z,11.18
2018-02-10T20:00:33.707Z,14.15
2018-02-10T20:03:02.538Z,10.48
2018-02-10T20:05:31.441Z,12.52
2018-02-10T20:08:00.316Z,34.13
2018-02-10T20:10:29.202Z,16.17
2018-02-10T20:12:58.028Z,12.10
2018-02-10T20:15:26.876Z,12.55
2018-02-10T20:17:55.701Z,16.10
2018-02-10T20:20:24.557Z,18.10
2018-02-10T20:22:54.353Z,16.62
2018-02-10T20:25:23.201Z,14.95
2018-02-10T20:27:52.017Z,12.63
2018-02-10T20:30:20.884Z,12.25
2018-02-10T20:32:49.722Z,19.42
2018-02-10T20:35:18.576Z,15.48
2018-02-10T20:37:47.423Z,15.35
2018-02-10T20:40:16.285Z,16.33
2018-02-10T20:42:45.186Z,14.65
2018-02-10T20:45:14.002Z,18.75
2018-02-10T20:47:42.868Z,15.52
2018-02-10T20:50:11.703Z,20.37
2018-02-10T20:52:40.625Z,11.95
2018-02-10T20:55:09.847Z,12.85
2018-02-10T20:57:38.663Z,17.37
2018-02-10T21:00:07.518Z,18.08
2018-02-10T21:02:36.391Z,13.70
2018-02-10T21:05:05.244Z,14.70
2018-02-10T21:07:34.085Z,12.10
2018-02-10T21:10:02.915Z,13.98
2018-02-10T21:12:31.765Z,14.05
2018-02-10T21:15:00.623Z,13.95
2018-02-10T21:17:29.493Z,15.40
2018-02-10T21:19:58.301Z,15.00
2018-02-10T21:22:27.135Z,12.93
2018-02-10T21:24:56.015Z,15.27
2018-02-10T21:27:24.882Z,12.88
2018-02-10T21:29:53.733Z,20.83
2018-02-10T21:32:22.568Z,23.15
2018-02-10T21:34:51.433Z,14.73
2018-02-10T21:37:20.281Z,10.68
2018-02-10T21:39:49.184Z,26.50
2018-02-10T21:42:18.069Z,20.45
2018-02-10T21:44:47.068Z,22.73
2018-02-10T21:47:15.901Z,20.05
2018-02-10T21:49:44.759Z,26.67
2018-02-10T21:52:13.595Z,23.90
2018-02-10T21:54:42.492Z,11.35
2018-02-10T21:57:11.351Z,21.00
2018-02-10T21:59:40.207Z,13.32
2018-02-10T22:02:09.062Z,13.20
2018-02-10T22:04:37.899Z,24.83
2018-02-10T22:07:06.740Z,35.33
2018-02-10T22:09:35.591Z,23.30
2018-02-10T22:12:04.433Z,33.40
2018-02-10T22:14:33.292Z,26.73
2018-02-10T22:17:02.133Z,15.88
2018-02-10T22:19:30.999Z,14.87
2018-02-10T22:21:59.852Z,22.42
2018-02-10T22:24:28.727Z,15.07
2018-02-10T22:26:57.547Z,28.12
2018-02-10T22:29:26.400Z,15.65
2018-02-10T22:31:55.247Z,20.10
2018-02-10T22:34:24.090Z,18.77
2018-02-10T22:36:52.926Z,16.98
2018-02-10T22:39:21.745Z,14.77
2018-02-10T22:41:50.599Z,26.48
2018-02-10T22:44:19.417Z,51.97
2018-02-10T22:46:48.277Z,27.35
2018-02-10T22:49:17.128Z,25.65
2018-02-10T22:51:45.972Z,21.67
2018-02-10T22:54:14.817Z,21.48
2018-02-10T22:56:43.672Z,21.27
2018-02-10T22:59:12.511Z,20.55
2018-02-10T23:01:41.327Z,18.60
2018-02-10T23:04:10.216Z,29.90
2018-02-10T23:06:39.372Z,17.95
2018-02-10T23:09:08.200Z,24.08
2018-02-10T23:11:37.325Z,19.75
2018-02-10T23:14:06.173Z,21.87
2018-02-10T23:16:35.027Z,26.42
2018-02-10T23:19:03.881Z,22.95
2018-02-10T23:21:32.693Z,28.80
2018-02-10T23:24:01.570Z,24.63
2018-02-10T23:26:30.396Z,16.95
2018-02-10T23:28:59.217Z,21.55
2018-02-10T23:31:28.055Z,27.65
2018-02-10T23:33:56.907Z,18.42
2018-02-10T23:36:25.735Z,16.90
2018-02-10T23:38:54.660Z,20.17
2018-02-10T23:41:23.502Z,15.90
2018-02-10T23:43:52.331Z,18.10
2018-02-10T23:46:21.203Z,14.90
2018-02-10T23:48:50.018Z,17.40
2018-02-10T23:51:18.849Z,16.92
2018-02-10T23:53:47.679Z,18.35
2018-02-10T23:56:16.517Z,19.45
2018-02-10T23:58:45.361Z,19.37
